createdAt,value
2018-08-19T00:00:11.187Z,17.14
2018-08-19T00:01:11.074Z,17.08
2018-08-19T00:02:10.975Z,17.05
2018-08-19T00:03:10.879Z,17.11
2018-08-19T00:04:10.777Z,17.05
2018-08-19T00:05:10.686Z,17.04
2018-08-19T00:06:10.595Z,17.05
2018-08-19T00:07:10.491Z,17.04
2018-08-19T00:08:10.389Z,16.99
2018-08-19T00:09:10.298Z,16.97
2018-08-19T00:10:10.206Z,16.96
2018-08-19T00:11:10.103Z,17.01
2018-08-19T00:12:10.015Z,16.96
2018-08-19T00:13:09.912Z,16.93
2018-08-19T00:14:09.818Z,16.90
2018-08-19T00:15:09.714Z,16.86
2018-08-19T00:16:09.624Z,16.84
2018-08-19T00:17:09.521Z,16.86
2018-08-19T00:18:09.430Z,16.79
2018-08-19T00:19:09.326Z,16.78
2018-08-19T00:20:09.236Z,16.83
2018-08-19T00:21:09.133Z,16.83
2018-08-19T00:22:09.042Z,16.76
2018-08-19T00:23:08.939Z,16.74
2018-08-19T00:24:08.848Z,16.71
2018-08-19T00:25:08.745Z,16.74
2018-08-19T00:26:08.653Z,16.74
2018-08-19T00:27:08.550Z,16.75
2018-08-19T00:28:08.460Z,16.71
2018-08-19T00:29:08.358Z,16.68
2018-08-19T00:30:08.268Z,16.71
2018-08-19T00:31:08.164Z,16.71
2018-08-19T00:32:08.072Z,16.66
2018-08-19T00:33:07.969Z,16.66
2018-08-19T00:34:07.877Z,16.66
2018-08-19T00:35:07.775Z,16.64
2018-08-19T00:36:07.684Z,16.64
2018-08-19T00:37:07.580Z,16.64
2018-08-19T00:38:07.489Z,16.64
2018-08-19T00:39:07.385Z,16.58
2018-08-19T00:40:07.295Z,16.54
2018-08-19T00:41:07.192Z,16.58
2018-08-19T00:42:07.100Z,16.42
2018-08-19T00:43:06.999Z,16.51
2018-08-19T00:44:06.908Z,16.32
2018-08-19T00:45:06.804Z,16.39
2018-08-19T00:46:06.714Z,16.29
2018-08-19T00:47:06.612Z,16.33
2018-08-19T00:48:06.519Z,16.31
2018-08-19T00:49:06.416Z,16.33
2018-08-19T00:50:06.324Z,16.31
2018-08-19T00:51:06.224Z,16.35
2018-08-19T00:52:06.119Z,16.36
2018-08-19T00:53:06.028Z,16.33
2018-08-19T00:54:05.926Z,16.32
2018-08-19T00:55:05.835Z,16.32
2018-08-19T00:56:05.730Z,16.39
2018-08-19T00:57:05.639Z,16.39
2018-08-19T00:58:05.536Z,16.35
2018-08-19T00:59:05.444Z,16.33
2018-08-19T01:00:05.341Z,16.33
2018-08-19T01:01:05.252Z,16.33
2018-08-19T01:02:05.149Z,16.38
2018-08-19T01:03:05.057Z,16.33
2018-08-19T01:04:04.953Z,16.36
2018-08-19T01:05:04.864Z,16.36
2018-08-19T01:06:04.770Z,16.28
2018-08-19T01:07:04.668Z,16.33
2018-08-19T01:08:04.564Z,16.32
2018-08-19T01:09:04.775Z,16.32
2018-08-19T01:10:04.372Z,16.36
2018-08-19T01:11:04.282Z,16.33
2018-08-19T01:12:04.178Z,16.28
2018-08-19T01:13:04.086Z,16.26
2018-08-19T01:14:03.984Z,16.24
2018-08-19T01:15:03.892Z,16.23
2018-08-19T01:16:03.789Z,16.26
2018-08-19T01:17:03.699Z,16.26
2018-08-19T01:18:03.596Z,16.21
2018-08-19T01:19:03.492Z,16.20
2018-08-19T01:20:03.416Z,16.24
2018-08-19T01:21:03.297Z,16.21
2018-08-19T01:22:03.207Z,16.04
2018-08-19T01:23:03.103Z,16.09
2018-08-19T01:24:03.012Z,16.08
2018-08-19T01:25:02.909Z,16.08
2018-08-19T01:26:02.820Z,16.09
2018-08-19T01:27:02.718Z,16.01
2018-08-19T01:28:02.625Z,16.02
2018-08-19T01:29:02.822Z,16.04
2018-08-19T01:30:02.430Z,16.08
2018-08-19T01:31:02.365Z,16.08
2018-08-19T01:32:02.236Z,16.04
2018-08-19T01:33:02.137Z,16.02
2018-08-19T01:34:02.042Z,16.05
2018-08-19T01:35:01.940Z,16.00
2018-08-19T01:36:01.836Z,16.01
2018-08-19T01:37:01.744Z,15.98
2018-08-19T01:38:01.642Z,15.90
2018-08-19T01:39:01.550Z,15.84
2018-08-19T01:40:01.447Z,15.90
2018-08-19T01:41:01.355Z,15.90
2018-08-19T01:42:01.252Z,15.86
2018-08-19T01:43:01.163Z,15.90
2018-08-19T01:44:01.059Z,15.84
2018-08-19T01:45:00.967Z,15.82
2018-08-19T01:46:00.864Z,15.86
2018-08-19T01:47:00.775Z,15.83
2018-08-19T01:48:00.670Z,15.90
2018-08-19T01:49:00.579Z,15.84
2018-08-19T01:50:00.476Z,15.91
2018-08-19T01:51:00.373Z,15.92
2018-08-19T01:52:00.282Z,15.90
2018-08-19T01:53:00.179Z,15.90
2018-08-19T01:54:00.088Z,15.90
2018-08-19T01:54:59.985Z,15.92
2018-08-19T01:55:59.897Z,15.88
2018-08-19T01:56:59.793Z,15.91
2018-08-19T01:57:59.702Z,15.84
2018-08-19T01:58:59.596Z,15.90
2018-08-19T01:59:59.506Z,15.84
2018-08-19T02:00:59.402Z,15.86
2018-08-19T02:01:59.312Z,15.84
2018-08-19T02:02:59.207Z,15.82
2018-08-19T02:03:59.105Z,15.79
2018-08-19T02:04:59.019Z,15.83
2018-08-19T02:05:58.911Z,15.77
2018-08-19T02:06:58.819Z,15.76
2018-08-19T02:07:58.717Z,15.70
2018-08-19T02:08:58.627Z,15.75
2018-08-19T02:09:58.523Z,15.70
2018-08-19T02:10:58.432Z,15.76
2018-08-19T02:11:58.329Z,15.76
2018-08-19T02:12:58.238Z,15.77
2018-08-19T02:13:58.135Z,15.67
2018-08-19T02:14:58.031Z,15.73
2018-08-19T02:15:57.942Z,15.65
2018-08-19T02:16:57.836Z,15.70
2018-08-19T02:17:57.746Z,15.67
2018-08-19T02:18:57.644Z,15.67
2018-08-19T02:19:57.552Z,15.67
2018-08-19T02:20:57.448Z,15.62
2018-08-19T02:21:57.363Z,15.55
2018-08-19T02:22:57.255Z,15.62
2018-08-19T02:23:57.176Z,15.59
2018-08-19T02:24:57.059Z,15.64
2018-08-19T02:25:56.958Z,15.55
2018-08-19T02:26:56.866Z,15.59
2018-08-19T02:27:56.764Z,15.57
2018-08-19T02:28:56.673Z,15.52
2018-08-19T02:29:56.569Z,15.47
2018-08-19T02:30:56.478Z,15.51
2018-08-19T02:31:56.376Z,15.49
2018-08-19T02:32:56.283Z,15.46
2018-08-19T02:33:56.180Z,15.44
2018-08-19T02:34:56.078Z,15.40
2018-08-19T02:35:55.987Z,15.43
2018-08-19T02:36:55.884Z,15.40
2018-08-19T02:37:55.793Z,15.43
2018-08-19T02:38:55.989Z,15.40
2018-08-19T02:39:55.598Z,15.39
2018-08-19T02:40:55.495Z,15.40
2018-08-19T02:41:55.403Z,15.42
2018-08-19T02:42:55.300Z,15.40
2018-08-19T02:43:55.200Z,15.42
2018-08-19T02:44:55.119Z,15.37
2018-08-19T02:45:55.004Z,15.39
2018-08-19T02:46:54.914Z,15.42
2018-08-19T02:47:54.809Z,15.40
2018-08-19T02:48:54.718Z,15.43
2018-08-19T02:49:54.619Z,15.46
2018-08-19T02:50:54.514Z,15.43
2018-08-19T02:51:54.420Z,15.40
2018-08-19T02:52:54.330Z,15.43
2018-08-19T02:53:54.227Z,15.36
2018-08-19T02:54:54.124Z,15.43
2018-08-19T02:55:54.032Z,15.51
2018-08-19T02:56:53.929Z,15.54
2018-08-19T02:57:53.839Z,15.46
2018-08-19T02:58:54.035Z,15.52
2018-08-19T02:59:53.632Z,15.52
2018-08-19T03:00:53.540Z,15.57
2018-08-19T03:01:53.437Z,15.59
2018-08-19T03:02:53.347Z,15.51
2018-08-19T03:03:53.244Z,15.51
2018-08-19T03:04:53.153Z,15.49
2018-08-19T03:05:53.049Z,15.51
2018-08-19T03:06:52.946Z,15.54
2018-08-19T03:07:52.855Z,15.43
2018-08-19T03:08:52.752Z,15.52
2018-08-19T03:09:52.661Z,15.37
2018-08-19T03:10:52.558Z,15.40
2018-08-19T03:11:52.467Z,15.42
2018-08-19T03:12:52.365Z,15.37
2018-08-19T03:13:52.273Z,15.43
2018-08-19T03:14:52.171Z,15.40
2018-08-19T03:15:52.066Z,15.35
2018-08-19T03:16:51.976Z,15.35
2018-08-19T03:17:51.876Z,15.35
2018-08-19T03:18:51.780Z,15.24
2018-08-19T03:19:51.679Z,15.36
2018-08-19T03:20:51.589Z,15.28
2018-08-19T03:21:51.484Z,15.27
2018-08-19T03:22:51.382Z,15.31
2018-08-19T03:23:51.289Z,15.28
2018-08-19T03:24:51.186Z,15.27
2018-08-19T03:25:51.097Z,15.27
2018-08-19T03:26:50.993Z,15.27
2018-08-19T03:27:50.902Z,15.19
2018-08-19T03:28:50.797Z,15.22
2018-08-19T03:29:50.696Z,15.18
2018-08-19T03:30:50.606Z,15.14
2018-08-19T03:31:50.503Z,15.21
2018-08-19T03:32:50.417Z,15.24
2018-08-19T03:33:50.309Z,15.21
2018-08-19T03:34:50.219Z,15.21
2018-08-19T03:35:50.114Z,15.14
2018-08-19T03:36:50.015Z,15.11
2018-08-19T03:37:49.960Z,15.14
2018-08-19T03:38:49.818Z,15.14
2018-08-19T03:39:49.725Z,15.10
2018-08-19T03:40:49.621Z,15.21
2018-08-19T03:41:49.532Z,15.11
2018-08-19T03:42:49.440Z,15.14
2018-08-19T03:43:49.324Z,15.03
2018-08-19T03:44:49.233Z,14.97
2018-08-19T03:45:49.131Z,15.02
2018-08-19T03:46:49.038Z,15.02
2018-08-19T03:47:48.935Z,15.04
2018-08-19T03:48:48.846Z,15.06
2018-08-19T03:49:48.742Z,15.03
2018-08-19T03:50:48.638Z,15.03
2018-08-19T03:51:48.547Z,14.97
2018-08-19T03:52:48.443Z,15.02
2018-08-19T03:53:48.384Z,15.04
2018-08-19T03:54:48.253Z,14.97
2018-08-19T03:55:48.147Z,14.94
2018-08-19T03:56:48.055Z,14.92
2018-08-19T03:57:47.953Z,14.89
2018-08-19T03:58:47.865Z,15.09
2018-08-19T03:59:47.758Z,14.96
2018-08-19T04:00:47.667Z,14.89
2018-08-19T04:01:47.565Z,15.03
2018-08-19T04:02:47.460Z,15.02
2018-08-19T04:03:47.371Z,14.99
2018-08-19T04:04:47.267Z,15.17
2018-08-19T04:05:47.175Z,15.09
2018-08-19T04:06:47.073Z,15.19
2018-08-19T04:07:46.985Z,15.21
2018-08-19T04:08:47.129Z,15.24
2018-08-19T04:09:46.776Z,15.29
2018-08-19T04:10:46.685Z,15.28
2018-08-19T04:11:46.593Z,15.29
2018-08-19T04:12:46.492Z,15.35
2018-08-19T04:13:46.391Z,15.36
2018-08-19T04:14:46.301Z,15.37
2018-08-19T04:15:46.192Z,15.42
2018-08-19T04:16:46.090Z,15.44
2018-08-19T04:17:46.004Z,15.37
2018-08-19T04:18:45.897Z,15.42
2018-08-19T04:19:45.804Z,15.49
2018-08-19T04:20:45.702Z,15.51
2018-08-19T04:21:45.611Z,15.51
2018-08-19T04:22:45.510Z,15.54
2018-08-19T04:23:45.418Z,15.65
2018-08-19T04:24:45.313Z,15.70
2018-08-19T04:25:45.211Z,15.75
2018-08-19T04:26:45.119Z,15.80
2018-08-19T04:27:45.016Z,15.70
2018-08-19T04:28:44.924Z,15.83
2018-08-19T04:29:44.832Z,15.90
2018-08-19T04:30:44.731Z,15.90
2018-08-19T04:31:44.629Z,15.90
2018-08-19T04:32:44.539Z,16.01
2018-08-19T04:33:44.683Z,16.02
2018-08-19T04:34:44.332Z,16.05
2018-08-19T04:35:44.240Z,16.12
2018-08-19T04:36:44.148Z,16.10
2018-08-19T04:37:44.044Z,16.26
2018-08-19T04:38:43.943Z,16.31
2018-08-19T04:39:43.853Z,16.33
2018-08-19T04:40:43.748Z,16.39
2018-08-19T04:41:43.658Z,16.41
2018-08-19T04:42:43.553Z,16.56
2018-08-19T04:43:43.463Z,16.57
2018-08-19T04:44:43.360Z,16.66
2018-08-19T04:45:43.268Z,16.61
2018-08-19T04:46:43.165Z,16.72
2018-08-19T04:47:43.074Z,16.76
2018-08-19T04:48:42.971Z,16.86
2018-08-19T04:49:42.894Z,16.89
2018-08-19T04:50:42.776Z,17.08
2018-08-19T04:51:42.687Z,17.08
2018-08-19T04:52:42.590Z,17.19
2018-08-19T04:53:42.492Z,17.19
2018-08-19T04:54:42.388Z,17.29
2018-08-19T04:55:42.298Z,17.33
2018-08-19T04:56:42.195Z,17.42
2018-08-19T04:57:42.103Z,17.65
2018-08-19T04:58:42.002Z,17.67
2018-08-19T04:59:41.960Z,17.89
2018-08-19T05:00:41.807Z,18.25
2018-08-19T05:01:41.715Z,18.40
2018-08-19T05:02:41.612Z,18.38
2018-08-19T05:03:41.774Z,18.62
2018-08-19T05:04:41.432Z,19.02
2018-08-19T05:05:41.327Z,19.29
2018-08-19T05:06:41.238Z,19.56
2018-08-19T05:07:41.134Z,19.89
2018-08-19T05:08:41.043Z,20.07
2018-08-19T05:09:40.940Z,19.89
2018-08-19T05:10:40.848Z,19.96
2018-08-19T05:11:40.758Z,20.32
2018-08-19T05:12:40.657Z,20.52
2018-08-19T05:13:40.565Z,20.74
2018-08-19T05:14:40.472Z,20.74
2018-08-19T05:15:40.427Z,20.81
2018-08-19T05:16:40.280Z,20.99
2018-08-19T05:17:40.187Z,20.99
2018-08-19T05:18:40.085Z,21.22
2018-08-19T05:19:39.994Z,21.54
2018-08-19T05:20:39.906Z,21.73
2018-08-19T05:21:39.799Z,21.66
2018-08-19T05:22:39.751Z,21.46
2018-08-19T05:23:39.617Z,21.24
2018-08-19T05:24:39.514Z,21.15
2018-08-19T05:25:39.425Z,21.02
2018-08-19T05:26:39.332Z,21.14
2018-08-19T05:27:39.231Z,21.57
2018-08-19T05:28:39.139Z,21.80
2018-08-19T05:29:39.047Z,22.17
2018-08-19T05:30:38.958Z,22.25
2018-08-19T05:31:38.874Z,21.93
2018-08-19T05:32:38.763Z,22.06
2018-08-19T05:33:38.673Z,21.98
2018-08-19T05:34:38.581Z,21.93
2018-08-19T05:35:38.485Z,22.04
2018-08-19T05:36:38.389Z,22.18
2018-08-19T05:37:38.296Z,22.44
2018-08-19T05:38:38.212Z,22.59
2018-08-19T05:39:38.117Z,22.68
2018-08-19T05:40:38.012Z,22.85
2018-08-19T05:41:37.922Z,23.12
2018-08-19T05:42:37.829Z,23.28
2018-08-19T05:43:37.740Z,23.48
2018-08-19T05:44:37.649Z,23.69
2018-08-19T05:45:37.550Z,23.74
2018-08-19T05:46:37.455Z,24.03
2018-08-19T05:47:37.367Z,23.96
2018-08-19T05:48:37.273Z,24.11
2018-08-19T05:49:37.182Z,24.29
2018-08-19T05:50:37.093Z,24.48
2018-08-19T05:51:37.002Z,24.61
2018-08-19T05:52:36.898Z,24.55
2018-08-19T05:53:36.807Z,24.80
2018-08-19T05:54:36.716Z,24.81
2018-08-19T05:55:36.682Z,24.85
2018-08-19T05:56:36.534Z,24.78
2018-08-19T05:57:36.444Z,25.03
2018-08-19T05:58:36.365Z,24.96
2018-08-19T05:59:36.262Z,24.85
2018-08-19T06:00:36.171Z,24.74
2018-08-19T06:01:36.080Z,24.51
2018-08-19T06:02:35.989Z,24.40
2018-08-19T06:03:36.187Z,24.54
2018-08-19T06:04:35.796Z,24.76
2018-08-19T06:05:35.704Z,25.06
2018-08-19T06:06:35.615Z,25.10
2018-08-19T06:07:35.543Z,25.38
2018-08-19T06:08:35.684Z,25.50
2018-08-19T06:09:35.341Z,25.77
2018-08-19T06:10:35.250Z,25.83
2018-08-19T06:11:35.159Z,25.93
2018-08-19T06:12:35.070Z,25.90
2018-08-19T06:13:34.979Z,25.96
2018-08-19T06:14:34.887Z,26.23
2018-08-19T06:15:34.796Z,26.36
2018-08-19T06:16:34.706Z,26.47
2018-08-19T06:17:34.627Z,26.55
2018-08-19T06:18:34.525Z,26.38
2018-08-19T06:19:34.433Z,26.38
2018-08-19T06:20:34.345Z,26.45
2018-08-19T06:21:34.252Z,26.38
2018-08-19T06:22:34.161Z,26.80
2018-08-19T06:23:34.070Z,26.99
2018-08-19T06:24:34.046Z,26.90
2018-08-19T06:25:33.900Z,27.21
2018-08-19T06:26:33.809Z,27.32
2018-08-19T06:27:33.719Z,27.58
2018-08-19T06:28:33.628Z,27.95
2018-08-19T06:29:33.536Z,28.12
2018-08-19T06:30:33.448Z,28.47
2018-08-19T06:31:33.357Z,28.74
2018-08-19T06:32:33.264Z,28.74
2018-08-19T06:33:33.174Z,28.60
2018-08-19T06:34:33.259Z,28.86
2018-08-19T06:35:33.004Z,28.47
2018-08-19T06:36:32.959Z,28.75
2018-08-19T06:37:32.823Z,28.97
2018-08-19T06:38:32.732Z,29.13
2018-08-19T06:39:32.643Z,29.20
2018-08-19T06:40:32.551Z,29.10
2018-08-19T06:41:32.473Z,28.98
2018-08-19T06:42:32.381Z,29.38
2018-08-19T06:43:32.293Z,29.45
2018-08-19T06:44:32.199Z,29.68
2018-08-19T06:45:32.114Z,29.78
2018-08-19T06:46:32.033Z,29.98
2018-08-19T06:47:31.939Z,30.00
2018-08-19T06:48:31.849Z,30.12
2018-08-19T06:49:31.758Z,30.19
2018-08-19T06:50:31.679Z,29.65
2018-08-19T06:51:31.590Z,29.42
2018-08-19T06:52:31.514Z,29.27
2018-08-19T06:53:31.408Z,29.50
2018-08-19T06:54:31.331Z,29.73
2018-08-19T06:55:31.239Z,29.39
2018-08-19T06:56:31.149Z,29.45
2018-08-19T06:57:31.058Z,29.78
2018-08-19T06:58:30.982Z,29.94
2018-08-19T06:59:30.888Z,29.78
2018-08-19T07:00:30.798Z,29.97
2018-08-19T07:01:30.718Z,30.02
2018-08-19T07:02:30.629Z,29.91
2018-08-19T07:03:30.867Z,29.31
2018-08-19T07:04:30.459Z,29.29
2018-08-19T07:05:30.368Z,29.84
2018-08-19T07:06:30.277Z,30.12
2018-08-19T07:07:30.189Z,30.40
2018-08-19T07:08:30.108Z,30.63
2018-08-19T07:09:30.017Z,30.72
2018-08-19T07:10:29.927Z,30.94
2018-08-19T07:11:29.849Z,31.15
2018-08-19T07:12:29.798Z,31.36
2018-08-19T07:13:29.691Z,31.28
2018-08-19T07:14:29.589Z,31.07
2018-08-19T07:15:29.547Z,30.57
2018-08-19T07:16:29.419Z,30.39
2018-08-19T07:17:29.330Z,30.00
2018-08-19T07:18:29.239Z,30.08
2018-08-19T07:19:29.159Z,30.13
2018-08-19T07:20:29.069Z,30.21
2018-08-19T07:21:28.990Z,30.13
2018-08-19T07:22:28.900Z,30.15
2018-08-19T07:23:28.809Z,30.32
2018-08-19T07:24:28.747Z,30.62
2018-08-19T07:25:28.645Z,30.73
2018-08-19T07:26:28.560Z,30.10
2018-08-19T07:27:28.472Z,30.37
2018-08-19T07:28:28.379Z,30.65
2018-08-19T07:29:28.300Z,30.37
2018-08-19T07:30:28.211Z,30.13
2018-08-19T07:31:28.121Z,30.25
2018-08-19T07:32:28.041Z,29.23
2018-08-19T07:33:27.951Z,29.79
2018-08-19T07:34:27.861Z,29.65
2018-08-19T07:35:27.781Z,29.10
2018-08-19T07:36:27.691Z,29.22
2018-08-19T07:37:27.601Z,29.24
2018-08-19T07:38:27.521Z,29.27
2018-08-19T07:39:27.431Z,29.22
2018-08-19T07:40:27.346Z,28.94
2018-08-19T07:41:27.262Z,28.60
2018-08-19T07:42:27.176Z,27.86
2018-08-19T07:43:27.081Z,27.45
2018-08-19T07:44:26.989Z,27.20
2018-08-19T07:45:26.899Z,27.08
2018-08-19T07:46:26.819Z,26.97
2018-08-19T07:47:26.729Z,26.88
2018-08-19T07:48:26.639Z,26.68
2018-08-19T07:49:26.548Z,26.60
2018-08-19T07:50:26.456Z,26.19
2018-08-19T07:51:26.369Z,26.09
2018-08-19T07:52:26.290Z,26.07
2018-08-19T07:53:26.197Z,26.13
2018-08-19T07:54:26.111Z,26.10
2018-08-19T07:55:26.018Z,26.28
2018-08-19T07:56:25.925Z,26.38
2018-08-19T07:57:25.833Z,26.51
2018-08-19T07:58:25.994Z,26.58
2018-08-19T07:59:25.655Z,26.59
2018-08-19T08:00:25.573Z,26.62
2018-08-19T08:01:25.572Z,26.81
2018-08-19T08:02:25.391Z,26.78
2018-08-19T08:03:25.307Z,26.81
2018-08-19T08:04:25.210Z,26.65
2018-08-19T08:05:25.119Z,26.53
2018-08-19T08:06:25.028Z,26.25
2018-08-19T08:07:24.939Z,26.25
2018-08-19T08:08:24.847Z,26.25
2018-08-19T08:09:24.757Z,26.31
2018-08-19T08:10:24.664Z,26.37
2018-08-19T08:11:24.575Z,26.38
2018-08-19T08:12:24.483Z,26.25
2018-08-19T08:13:24.393Z,26.26
2018-08-19T08:14:24.302Z,26.05
2018-08-19T08:15:24.212Z,26.13
2018-08-19T08:16:24.120Z,26.18
2018-08-19T08:17:24.030Z,26.03
2018-08-19T08:18:24.238Z,26.16
2018-08-19T08:19:23.848Z,26.06
2018-08-19T08:20:23.758Z,26.13
2018-08-19T08:21:23.787Z,26.25
2018-08-19T08:22:23.576Z,26.25
2018-08-19T08:23:23.485Z,26.38
2018-08-19T08:24:23.394Z,26.41
2018-08-19T08:25:23.317Z,26.51
2018-08-19T08:26:23.212Z,26.70
2018-08-19T08:27:23.122Z,26.71
2018-08-19T08:28:23.031Z,26.83
2018-08-19T08:29:22.953Z,26.92
2018-08-19T08:30:22.849Z,27.07
2018-08-19T08:31:22.762Z,27.15
2018-08-19T08:32:22.670Z,27.15
2018-08-19T08:33:22.588Z,27.35
2018-08-19T08:34:22.538Z,27.33
2018-08-19T08:35:22.407Z,27.47
2018-08-19T08:36:22.305Z,27.54
2018-08-19T08:37:22.226Z,27.67
2018-08-19T08:38:22.123Z,27.65
2018-08-19T08:39:22.045Z,27.67
2018-08-19T08:40:21.942Z,27.67
2018-08-19T08:41:21.863Z,27.67
2018-08-19T08:42:21.761Z,27.80
2018-08-19T08:43:21.681Z,27.95
2018-08-19T08:44:21.591Z,28.05
2018-08-19T08:45:21.501Z,28.05
2018-08-19T08:46:21.403Z,28.08
2018-08-19T08:47:21.345Z,28.11
2018-08-19T08:48:21.227Z,28.22
2018-08-19T08:49:21.135Z,28.22
2018-08-19T08:50:21.034Z,28.19
2018-08-19T08:51:20.954Z,28.08
2018-08-19T08:52:20.864Z,28.19
2018-08-19T08:53:20.861Z,28.30
2018-08-19T08:54:20.684Z,28.17
2018-08-19T08:55:20.591Z,28.19
2018-08-19T08:56:20.510Z,28.37
2018-08-19T08:57:20.409Z,28.49
2018-08-19T08:58:20.320Z,28.54
2018-08-19T08:59:20.230Z,28.60
2018-08-19T09:00:20.140Z,28.82
2018-08-19T09:01:20.046Z,29.02
2018-08-19T09:02:19.958Z,29.32
2018-08-19T09:03:19.942Z,29.75
2018-08-19T09:04:19.775Z,30.13
2018-08-19T09:05:19.697Z,30.47
2018-08-19T09:06:19.593Z,30.78
2018-08-19T09:07:19.501Z,31.07
2018-08-19T09:08:19.412Z,31.62
2018-08-19T09:09:19.333Z,32.01
2018-08-19T09:10:19.229Z,32.41
2018-08-19T09:11:19.138Z,32.77
2018-08-19T09:12:19.036Z,33.12
2018-08-19T09:13:18.945Z,33.55
2018-08-19T09:14:18.854Z,33.79
2018-08-19T09:15:18.766Z,33.86
2018-08-19T09:16:18.673Z,33.94
2018-08-19T09:17:18.582Z,34.14
2018-08-19T09:18:18.491Z,33.08
2018-08-19T09:19:18.423Z,32.80
2018-08-19T09:20:18.322Z,32.18
2018-08-19T09:21:18.230Z,31.92
2018-08-19T09:22:18.140Z,31.94
2018-08-19T09:23:18.253Z,31.90
2018-08-19T09:24:17.960Z,31.99
2018-08-19T09:25:17.867Z,32.01
2018-08-19T09:26:17.789Z,32.38
2018-08-19T09:27:17.698Z,32.68
2018-08-19T09:28:17.607Z,32.83
2018-08-19T09:29:17.517Z,32.41
2018-08-19T11:07:09.555Z,33.23
2018-08-19T11:08:09.476Z,32.49
2018-08-19T11:09:09.397Z,32.01
2018-08-19T11:10:09.323Z,32.60
2018-08-19T11:11:09.241Z,32.41
2018-08-19T11:12:09.163Z,32.40
2018-08-19T11:13:09.074Z,32.70
2018-08-19T11:14:08.994Z,32.96
2018-08-19T11:15:08.916Z,33.27
2018-08-19T11:16:08.825Z,33.28
2018-08-19T11:17:08.747Z,32.93
2018-08-19T11:18:08.980Z,32.56
2018-08-19T11:19:08.578Z,32.29
2018-08-19T11:20:08.500Z,32.23
2018-08-19T11:21:08.518Z,31.71
2018-08-19T11:22:08.333Z,31.62
2018-08-19T11:23:08.251Z,31.87
2018-08-19T11:24:08.173Z,31.90
2018-08-19T11:25:08.083Z,32.12
2018-08-19T11:26:08.008Z,32.49
2018-08-19T11:27:07.912Z,32.56
2018-08-19T11:28:07.835Z,32.38
2018-08-19T11:29:07.747Z,32.11
2018-08-19T11:30:07.666Z,31.87
2018-08-19T11:31:07.575Z,31.52
2018-08-19T11:32:07.496Z,30.94
2018-08-19T11:33:07.406Z,30.62
2018-08-19T11:34:07.393Z,30.47
2018-08-19T11:35:07.236Z,30.48
2018-08-19T11:36:07.158Z,30.48
2018-08-19T11:37:07.069Z,30.54
2018-08-19T11:38:07.290Z,30.34
2018-08-19T11:39:06.899Z,30.34
2018-08-19T11:40:06.808Z,30.32
2018-08-19T11:41:06.730Z,30.37
2018-08-19T11:42:06.639Z,30.15
2018-08-19T11:43:06.548Z,29.98
2018-08-19T11:44:06.472Z,29.97
2018-08-19T11:45:06.392Z,29.84
2018-08-19T11:46:06.288Z,29.73
2018-08-19T11:47:06.198Z,29.73
2018-08-19T11:48:06.131Z,29.59
2018-08-19T11:49:06.028Z,29.41
2018-08-19T11:50:05.940Z,29.36
2018-08-19T11:51:05.859Z,29.39
2018-08-19T11:52:05.768Z,29.41
2018-08-19T11:53:05.676Z,29.29
2018-08-19T11:54:05.589Z,29.22
2018-08-19T11:55:05.509Z,29.08
2018-08-19T11:56:05.472Z,29.20
2018-08-19T11:57:05.328Z,29.12
2018-08-19T11:58:05.235Z,29.22
2018-08-19T11:59:05.145Z,29.01
2018-08-19T12:00:05.067Z,29.17
2018-08-19T12:01:05.084Z,29.19
2018-08-19T12:02:04.993Z,29.24
2018-08-19T12:03:05.044Z,29.41
2018-08-19T12:04:04.705Z,29.45
2018-08-19T12:05:04.614Z,29.53
2018-08-19T12:06:04.534Z,29.44
2018-08-19T12:07:04.445Z,29.49
2018-08-19T12:08:04.353Z,29.51
2018-08-19T12:09:04.262Z,29.44
2018-08-19T12:10:04.171Z,29.53
2018-08-19T12:11:04.082Z,29.59
2018-08-19T12:12:04.003Z,29.69
2018-08-19T12:13:03.923Z,29.65
2018-08-19T12:14:03.826Z,29.50
2018-08-19T12:15:03.729Z,29.50
2018-08-19T12:16:03.639Z,29.39
2018-08-19T12:17:03.650Z,29.39
2018-08-19T12:18:03.709Z,29.31
2018-08-19T12:19:03.379Z,29.41
2018-08-19T12:20:03.288Z,29.53
2018-08-19T12:21:03.199Z,29.57
2018-08-19T12:22:03.106Z,29.50
2018-08-19T12:23:03.019Z,29.54
2018-08-19T12:24:02.925Z,29.51
2018-08-19T12:25:02.834Z,29.49
2018-08-19T12:26:02.744Z,29.61
2018-08-19T12:27:02.666Z,29.65
2018-08-19T12:28:02.575Z,29.69
2018-08-19T12:29:02.483Z,29.73
2018-08-19T12:30:02.393Z,29.69
2018-08-19T12:31:02.315Z,29.73
2018-08-19T12:32:02.216Z,29.88
2018-08-19T12:33:02.120Z,29.86
2018-08-19T12:34:02.030Z,29.95
2018-08-19T12:35:01.940Z,30.06
2018-08-19T12:36:01.861Z,29.94
2018-08-19T12:37:01.802Z,30.06
2018-08-19T12:38:01.679Z,30.00
2018-08-19T12:39:01.591Z,30.05
2018-08-19T12:40:01.497Z,30.09
2018-08-19T12:41:01.410Z,30.05
2018-08-19T12:42:01.316Z,30.12
2018-08-19T12:43:01.226Z,30.27
2018-08-19T12:44:01.147Z,30.16
2018-08-19T12:45:01.056Z,30.12
2018-08-19T12:46:00.966Z,30.10
2018-08-19T12:47:00.875Z,30.08
2018-08-19T12:48:00.783Z,30.13
2018-08-19T12:49:00.692Z,30.06
2018-08-19T12:50:00.602Z,30.13
2018-08-19T12:51:00.510Z,30.05
2018-08-19T12:52:00.421Z,29.98
2018-08-19T12:53:00.342Z,29.88
2018-08-19T12:54:00.251Z,29.87
2018-08-19T12:55:00.160Z,29.88
2018-08-19T12:56:00.070Z,30.00
2018-08-19T12:56:59.979Z,30.05
2018-08-19T12:57:59.888Z,30.08
2018-08-19T12:58:59.798Z,30.09
2018-08-19T12:59:59.707Z,30.08
2018-08-19T13:00:59.617Z,30.10
2018-08-19T13:01:59.526Z,30.12
2018-08-19T13:02:59.446Z,30.13
2018-08-19T13:03:59.356Z,30.12
2018-08-19T13:04:59.264Z,30.19
2018-08-19T13:05:59.175Z,30.10
2018-08-19T13:06:59.082Z,30.24
2018-08-19T13:07:59.030Z,30.32
2018-08-19T13:08:58.901Z,30.43
2018-08-19T13:09:58.811Z,30.44
2018-08-19T13:10:58.733Z,30.48
2018-08-19T13:11:58.642Z,30.57
2018-08-19T13:12:58.550Z,30.57
2018-08-19T13:13:58.459Z,30.68
2018-08-19T13:14:58.370Z,30.77
2018-08-19T13:15:58.278Z,30.68
2018-08-19T13:16:58.189Z,30.65
2018-08-19T13:17:58.095Z,30.34
2018-08-19T13:18:58.006Z,30.30
2018-08-19T13:19:57.928Z,30.40
2018-08-19T13:20:57.836Z,30.28
2018-08-19T13:21:57.746Z,30.32
2018-08-19T13:22:57.694Z,30.32
2018-08-19T13:23:57.565Z,30.43
2018-08-19T13:24:57.472Z,30.57
2018-08-19T13:25:57.382Z,30.54
2018-08-19T13:26:57.292Z,30.50
2018-08-19T13:27:57.251Z,30.46
2018-08-19T13:28:57.123Z,30.48
2018-08-19T13:29:57.030Z,30.30
2018-08-19T13:30:56.941Z,30.31
2018-08-19T13:31:56.849Z,30.31
2018-08-19T13:32:56.759Z,30.37
2018-08-19T13:33:56.671Z,30.50
2018-08-19T13:34:56.577Z,30.44
2018-08-19T13:35:56.487Z,30.31
2018-08-19T13:36:56.408Z,30.27
2018-08-19T13:37:56.317Z,30.35
2018-08-19T13:38:56.226Z,30.35
2018-08-19T13:39:56.137Z,30.35
2018-08-19T13:40:56.046Z,30.39
2018-08-19T13:41:55.966Z,30.48
2018-08-19T13:42:55.865Z,30.44
2018-08-19T13:43:55.773Z,30.30
2018-08-19T13:44:55.684Z,30.40
2018-08-19T13:45:55.604Z,30.35
2018-08-19T13:46:55.516Z,30.53
2018-08-19T13:47:55.422Z,30.35
2018-08-19T13:48:55.331Z,30.24
2018-08-19T13:49:55.239Z,30.28
2018-08-19T13:50:55.150Z,30.27
2018-08-19T13:51:55.058Z,30.21
2018-08-19T13:52:54.969Z,30.13
2018-08-19T13:53:54.878Z,30.08
2018-08-19T13:54:54.798Z,30.15
2018-08-19T13:55:54.709Z,30.24
2018-08-19T13:56:54.616Z,30.37
2018-08-19T13:57:54.778Z,30.34
2018-08-19T13:58:54.435Z,30.47
2018-08-19T13:59:54.345Z,30.48
2018-08-19T14:00:54.253Z,30.32
2018-08-19T14:01:54.165Z,30.40
2018-08-19T14:02:54.073Z,30.32
2018-08-19T14:03:53.993Z,30.35
2018-08-19T14:04:53.905Z,30.32
2018-08-19T14:05:53.813Z,30.44
2018-08-19T14:06:53.721Z,30.48
2018-08-19T14:07:53.630Z,30.61
2018-08-19T14:08:53.542Z,30.61
2018-08-19T14:09:53.450Z,30.65
2018-08-19T14:10:53.358Z,30.69
2018-08-19T14:11:53.268Z,30.66
2018-08-19T14:12:53.189Z,30.62
2018-08-19T14:13:53.099Z,30.61
2018-08-19T14:14:53.008Z,30.46
2018-08-19T14:15:52.917Z,30.54
2018-08-19T14:16:52.826Z,30.30
2018-08-19T14:17:53.035Z,30.48
2018-08-19T14:18:52.644Z,30.51
2018-08-19T14:19:52.554Z,30.48
2018-08-19T14:20:52.464Z,30.57
2018-08-19T14:21:52.385Z,30.59
2018-08-19T14:22:52.294Z,30.55
2018-08-19T14:23:52.204Z,30.37
2018-08-19T14:24:52.112Z,30.47
2018-08-19T14:25:52.021Z,30.35
2018-08-19T14:26:51.936Z,30.28
2018-08-19T14:27:51.839Z,30.34